Data for 04/13/2007

Time Sea-Level Adjusted Pressure Absolute Pressure Temperature Relative Humidity Dew Point   
(mb) (inHg) (mb) (inHg) (C) (F) (%) (C) (F)
00:05 1019 30.09 848 25.04 -0.9 30.5 70 -5.6 21.9
00:10 1019 30.09 848 25.04 -0.8 30.5 71 -5.5 22.2
00:15 1019 30.09 848 25.04 -0.9 30.4 72 -5.4 22.4
00:20 1019 30.09 848 25.04 -1 30.3 72 -5.3 22.4
00:25 1019 30.09 848 25.04 -1.1 30.1 73 -5.3 22.4
00:30 1019 30.09 848 25.04 -1.3 29.7 74 -5.3 22.5
00:35 1019 30.09 848 25.04 -1.4 29.4 75 -5.2 22.6
00:40 1019 30.09 848 25.04 -1.4 29.5 75 -5.3 22.5
00:45 1019 30.09 848 25.04 -1.4 29.5 74 -5.4 22.2
00:50 1019 30.09 848 25.04 -1.4 29.5 73 -5.6 21.9
00:55 1019 30.09 848 25.04 -1.2 29.8 72 -5.6 21.9
01:00 1019 30.09 848 25.04 -1.2 29.8 71 -5.8 21.5
01:05 1019 30.09 848 25.04 -1.3 29.7 71 -5.8 21.5
01:10 1019 30.09 848 25.04 -1.3 29.7 72 -5.8 21.6
01:15 1019 30.09 848 25.04 -1.4 29.5 72 -5.8 21.6
01:20 1019 30.09 848 25.04 -1.5 29.4 72 -5.9 21.4
01:25 1019 30.09 848 25.04 -1.5 29.2 72 -5.9 21.3
01:30 1019 30.09 848 25.04 -1.5 29.2 72 -6 21.2
01:35 1019 30.09 848 25.04 -1.5 29.2 72 -5.9 21.3
01:40 1019 30.09 848 25.04 -1.7 29 73 -5.9 21.3
01:45 1019 30.09 848 25.04 -1.7 28.9 74 -5.8 21.5
01:50 1019 30.09 848 25.04 -1.8 28.7 74 -5.9 21.4
01:55 1019 30.09 848 25.04 -1.9 28.6 74 -6 21.3
02:00 1019 30.09 848 25.04 -1.7 28.9 72 -6.1 21.1
02:05 1019 30.09 848 25.04 -1.7 29 71 -6.2 20.8
02:10 1019 30.09 848 25.04 -1.7 28.9 72 -6.2 20.8
02:15 1019 30.09 848 25.04 -1.6 29.1 71 -6.3 20.7
02:20 1019 30.09 848 25.04 -1.7 29 71 -6.2 20.8
02:25 1019 30.09 848 25.04 -1.8 28.8 72 -6.2 20.9
02:30 1019 30.09 848 25.04 -1.8 28.7 72 -6.2 20.8
02:35 1019 30.09 848 25.04 -1.8 28.8 72 -6.2 20.8
02:40 1019 30.09 848 25.04 -1.9 28.6 71 -6.4 20.4
02:45 1019 30.09 848 25.04 -2.1 28.1 74 -6.3 20.7
02:50 1019 30.09 848 25.04 -2.2 28.1 74 -6.2 20.8
02:55 1019 30.09 849 25.07 -2.2 28 73 -6.4 20.5
03:00 1019 30.09 848 25.04 -2.3 27.9 74 -6.4 20.6
03:05 1019 30.09 849 25.07 -2.3 27.8 73 -6.6 20.2
03:10 1019 30.09 848 25.04 -2.2 28 72 -6.6 20.1
03:15 1019 30.09 848 25.04 -2.3 27.8 71 -6.8 19.7
03:20 1019 30.09 849 25.07 -2.3 27.9 71 -6.7 19.9
03:25 1019 30.09 849 25.07 -2.3 27.8 70 -7 19.4
03:30 1019 30.09 849 25.07 -2.4 27.7 71 -7 19.3
03:35 1019 30.09 849 25.07 -2.3 27.9 69 -7.2 19.1
03:40 1019 30.09 849 25.07 -2.1 28.3 68 -7.3 18.9
03:45 1019 30.09 849 25.07 -2.2 28.1 69 -7.1 19.2
03:50 1019 30.09 849 25.07 -2.3 27.9 68 -7.3 18.8
03:55 1019 30.09 849 25.07 -2.3 27.8 69 -7.3 18.9
04:00 1020 30.12 849 25.07 -2.4 27.6 70 -7.1 19.2
04:05 1020 30.12 849 25.07 -2.5 27.4 70 -7.3 18.9
04:10 1020 30.12 849 25.07 -2.5 27.5 69 -7.4 18.7
04:15 1020 30.12 849 25.07 -2.5 27.6 70 -7.3 18.9
04:20 1020 30.12 849 25.07 -2.7 27.2 71 -7.2 19
04:25 1020 30.12 849 25.07 -2.7 27.1 70 -7.4 18.7
04:30 1020 30.12 849 25.07 -2.6 27.3 70 -7.3 18.9
04:35 1020 30.12 849 25.07 -2.7 27.2 71 -7.3 18.9
04:40 1020 30.12 849 25.07 -2.7 27.2 69 -7.5 18.5
04:45 1020 30.12 849 25.07 -2.5 27.4 69 -7.5 18.4
04:50 1020 30.12 849 25.07 -2.3 27.9 67 -7.6 18.3
04:55 1020 30.12 849 25.07 -2 28.4 66 -7.5 18.4
05:00 1020 30.12 849 25.07 -2.1 28.2 67 -7.5 18.5
05:05 1020 30.12 849 25.07 -2.3 27.9 68 -7.4 18.7
05:10 1020 30.12 849 25.07 -2.2 28.1 67 -7.5 18.6
05:15 1020 30.12 849 25.07 -2.3 27.8 68 -7.4 18.7
05:20 1020 30.12 849 25.07 -2.5 27.4 70 -7.3 18.8
05:25 1020 30.12 849 25.07 -2.6 27.2 70 -7.4 18.7
05:30 1020 30.12 850 25.1 -2.6 27.3 69 -7.5 18.6
05:35 1020 30.12 850 25.1 -2.6 27.2 70 -7.4 18.6
05:40 1020 30.12 850 25.1 -2.6 27.4 70 -7.4 18.8
05:45 1020 30.12 850 25.1 -2.7 27.1 70 -7.4 18.6
05:50 1020 30.12 850 25.1 -2.7 27.1 70 -7.5 18.5
05:55 1020 30.12 850 25.1 -2.6 27.4 69 -7.6 18.4
06:00 1020 30.12 850 25.1 -2.4 27.6 67 -7.7 18.1
06:05 1020 30.12 850 25.1 -2.3 27.9 66 -7.8 18
06:10 1021 30.15 850 25.1 -2.2 28 67 -7.5 18.6
06:15 1021 30.15 850 25.1 -2.5 27.4 69 -7.4 18.7
06:20 1021 30.15 850 25.1 -2.8 26.9 70 -7.6 18.4
06:25 1021 30.15 850 25.1 -2.9 26.7 71 -7.4 18.6
06:30 1021 30.15 850 25.1 -3.1 26.4 72 -7.5 18.4
06:35 1021 30.15 850 25.1 -3 26.5 71 -7.6 18.3
06:40 1021 30.15 850 25.1 -2.9 26.8 69 -7.7 18.1
06:45 1021 30.15 850 25.1 -2.7 27.1 68 -7.8 18
06:50 1021 30.15 850 25.1 -2.7 27.2 68 -7.8 18
06:55 1021 30.15 850 25.1 -2.9 26.9 69 -7.8 17.9
07:00 1021 30.15 850 25.1 -2.8 26.9 68 -7.9 17.8
07:05 1021 30.15 850 25.1 -2.6 27.3 66 -8.1 17.5
07:10 1021 30.15 850 25.1 -2.3 27.9 66 -7.8 18
07:15 1021 30.15 850 25.1 -2.3 27.8 67 -7.7 18.2
07:20 1021 30.15 851 25.13 -2.5 27.4 68 -7.6 18.3
07:25 1021 30.15 851 25.13 -2.6 27.4 69 -7.5 18.5
07:30 1021 30.15 851 25.13 -2.6 27.3 69 -7.6 18.3
07:35 1021 30.15 851 25.13 -2.5 27.6 68 -7.6 18.4
07:40 1021 30.15 851 25.13 -2.2 28 68 -7.4 18.6
07:45 1021 30.15 851 25.13 -1.9 28.6 66 -7.4 18.6
07:50 1021 30.15 851 25.13 -1.9 28.6 66 -7.4 18.7
07:55 1022 30.18 851 25.13 -1.5 29.3 64 -7.4 18.7
08:00 1022 30.18 851 25.13 -1.2 29.9 64 -7.2 19
08:05 1022 30.18 851 25.13 -0.7 30.7 61 -7.2 19
08:10 1022 30.18 851 25.13 -0.2 31.6 61 -6.9 19.5
08:15 1022 30.18 851 25.13 0.2 32.3 58 -7.1 19.2
08:20 1022 30.18 851 25.13 0.2 32.3 58 -7.1 19.3
08:25 1022 30.18 851 25.13 0.6 33.1 57 -7.1 19.2
08:30 1022 30.18 851 25.13 0.7 33.2 58 -6.7 19.9
08:35 1022 30.18 851 25.13 1.2 34.2 56 -6.6 20.2
08:40 1022 30.18 851 25.13 1.6 34.9 55 -6.5 20.2
08:45 1022 30.18 851 25.13 2.3 36.1 51 -6.7 19.9
08:50 1022 30.18 851 25.13 2.5 36.4 50 -6.9 19.6
08:55 1022 30.18 851 25.13 2.6 36.6 50 -6.8 19.8
09:00 1022 30.18 851 25.13 2.8 37 50 -6.7 19.9
09:05 1022 30.18 851 25.13 3.9 39.1 46 -6.6 20.1
09:10 1022 30.18 851 25.13 4 39.2 46 -6.5 20.4
09:15 1022 30.18 851 25.13 4.4 39.9 45 -6.4 20.5
09:20 1022 30.18 851 25.13 5 41 44 -6.4 20.5
09:25 1022 30.18 851 25.13 5.1 41.3 44 -6.1 21
09:30 1022 30.18 851 25.13 5.3 41.5 43 -6.2 20.8
09:35 1022 30.18 851 25.13 5.3 41.5 42 -6.6 20.2
09:40 1022 30.18 851 25.13 5.2 41.4 43 -6.4 20.6
09:45 1022 30.18 851 25.13 5.6 42.1 41 -6.7 19.9
09:50 1022 30.18 851 25.13 5.8 42.4 41 -6.5 20.2
09:55 1022 30.18 851 25.13 6.2 43.2 39 -6.6 20
10:00 1022 30.18 851 25.13 6.1 43 39 -6.7 19.9
10:05 1022 30.18 851 25.13 6 42.8 40 -6.7 19.9
10:10 1022 30.18 851 25.13 6.3 43.3 38 -7 19.5
10:15 1022 30.18 851 25.13 6.8 44.3 38 -6.5 20.3
10:20 1022 30.18 851 25.13 7 44.6 37 -6.7 20
10:25 1022 30.18 851 25.13 6.6 43.9 38 -6.7 19.9
10:30 1022 30.18 851 25.13 6.6 43.9 38 -6.8 19.8
10:35 1022 30.18 851 25.13 6.6 43.8 35 -7.7 18.1
10:40 1022 30.18 851 25.13 6.4 43.6 36 -7.5 18.4
10:45 1022 30.18 851 25.13 7.3 45.2 35 -7.3 18.8
10:50 1022 30.18 851 25.13 7.9 46.2 33 -7.3 18.9
10:55 1022 30.18 851 25.13 8 46.3 32 -7.6 18.4
11:00 1022 30.18 851 25.13 8.5 47.3 32 -7.2 19.1
11:05 1022 30.18 851 25.13 8.2 46.7 33 -7.1 19.2
11:10 1021 30.15 851 25.13 8.3 46.9 32 -7.4 18.7
11:15 1021 30.15 851 25.13 8.1 46.6 32 -7.6 18.3
11:20 1021 30.15 851 25.13 7.2 45 33 -8.2 17.3
11:25 1021 30.15 851 25.13 7.4 45.3 31 -8.5 16.8
11:30 1021 30.15 851 25.13 8.4 47.1 30 -8.1 17.5
11:35 1021 30.15 850 25.1 8.9 48.1 30 -7.5 18.4
11:40 1021 30.15 850 25.1 9.4 48.9 30 -7.1 19.1
11:45 1021 30.15 850 25.1 8.8 47.9 32 -7.1 19.2
11:50 1021 30.15 850 25.1 8.5 47.3 33 -7 19.5
11:55 1021 30.15 850 25.1 8.7 47.6 32 -7.1 19.1
12:00 1021 30.15 850 25.1 8.5 47.2 32 -7.4 18.8
12:05 1021 30.15 850 25.1 9.6 49.2 30 -7 19.3
12:10 1021 30.15 850 25.1 9.8 49.6 28 -7.7 18.1
12:15 1021 30.15 850 25.1 9.3 48.7 30 -7.5 18.5
12:20 1021 30.15 850 25.1 7.9 46.3 32 -7.7 18.1
12:25 1021 30.15 850 25.1 9.1 48.4 30 -7.4 18.7
12:30 1020 30.12 850 25.1 10.2 50.4 28 -7.4 18.8
12:35 1020 30.12 850 25.1 10 49.9 29 -7.1 19.2
12:40 1020 30.12 850 25.1 9.4 48.8 31 -6.8 19.8
12:45 1020 30.12 850 25.1 9.3 48.7 29 -7.7 18.1
12:50 1020 30.12 849 25.07 10.2 50.4 28 -7.7 18.2
12:55 1020 30.12 849 25.07 10.4 50.6 28 -7.3 18.8
13:00 1020 30.12 849 25.07 9.9 49.8 28 -7.6 18.3
13:05 1020 30.12 849 25.07 10.1 50.1 28 -7.5 18.5
13:10 1020 30.12 849 25.07 9.9 49.8 28 -7.7 18.2
13:15 1020 30.12 849 25.07 10.2 50.3 28 -7.5 18.5
13:20 1020 30.12 849 25.07 10.6 51 27 -7.6 18.3
13:25 1020 30.12 849 25.07 11.1 51.9 28 -6.7 20
13:30 1020 30.12 849 25.07 10.7 51.2 29 -6.7 19.9
13:35 1020 30.12 849 25.07 10.6 51.1 28 -7 19.4
13:40 1020 30.12 849 25.07 11.3 52.4 27 -7.1 19.2
13:45 1020 30.12 849 25.07 11.3 52.3 26 -7.5 18.5
13:50 1020 30.12 849 25.07 11.1 52 27 -7.3 18.9
13:55 1019 30.09 849 25.07 11.5 52.6 27 -6.8 19.8
14:00 1019 30.09 849 25.07 11.1 51.9 27 -7.1 19.3
14:05 1019 30.09 849 25.07 11.6 52.8 25 -7.7 18.1
14:10 1019 30.09 848 25.04 11.9 53.4 25 -7.3 18.9
14:15 1019 30.09 848 25.04 11.9 53.3 26 -7.1 19.2
14:20 1019 30.09 848 25.04 12.3 54.2 25 -7.2 19
14:25 1019 30.09 848 25.04 11.4 52.5 27 -6.8 19.7
14:30 1019 30.09 848 25.04 10.4 50.8 28 -7.4 18.7
14:35 1019 30.09 848 25.04 11.3 52.4 27 -7.2 19
14:40 1019 30.09 848 25.04 11.6 52.8 25 -7.8 17.9
14:45 1019 30.09 848 25.04 10.9 51.6 27 -7.5 18.6
14:50 1019 30.09 848 25.04 11.8 53.3 24 -8.2 17.2
14:55 1019 30.09 848 25.04 12.2 54 23 -8.4 16.9
15:00 1019 30.09 848 25.04 12.4 54.4 23 -8.3 17.1
15:05 1019 30.09 848 25.04 13.2 55.7 22 -8.1 17.3
15:10 1019 30.09 848 25.04 13.7 56.7 21 -8.1 17.5
15:15 1019 30.09 848 25.04 13.4 56.2 22 -7.7 18.1
15:20 1019 30.09 848 25.04 13.5 56.4 21 -8.2 17.2
15:25 1018 30.06 848 25.04 13.5 56.4 21 -8.4 16.9
15:30 1018 30.06 848 25.04 13.9 57.1 21 -8.3 17.1
15:35 1018 30.06 847 25.01 12.4 54.4 23 -8 17.6
15:40 1018 30.06 847 25.01 12.2 53.9 23 -8.2 17.2
15:45 1018 30.06 847 25.01 12.3 54.1 22 -8.9 15.9
15:50 1018 30.06 847 25.01 13 55.4 22 -8.3 17
15:55 1018 30.06 847 25.01 13.9 56.9 19 -9.3 15.3
16:00 1018 30.06 847 25.01 14.3 57.7 20 -8.6 16.5
16:05 1018 30.06 847 25.01 14.4 57.8 18 -9.3 15.2
16:10 1018 30.06 847 25.01 13.9 57 20 -8.9 16
16:15 1018 30.06 847 25.01 13.9 57 18 -9.7 14.6
16:20 1018 30.06 847 25.01 13.6 56.5 18 -10 13.9
16:25 1018 30.06 847 25.01 14 57.2 18 -10.3 13.5
16:30 1018 30.06 847 25.01 13.8 56.8 18 -10.2 13.6
16:35 1017 30.03 847 25.01 13.4 56.2 19 -10.1 13.9
16:40 1017 30.03 846 24.98 14.1 57.4 15 -11.9 10.6
16:45 1017 30.03 846 24.98 14.6 58.3 15 -11.4 11.4
16:50 1017 30.03 846 24.98 14.6 58.3 14 -12.5 9.5
16:55 1017 30.03 846 24.98 14.5 58.2 14 -12.4 9.8
17:00 1017 30.03 846 24.98 14.3 57.8 14 -13 8.5
17:05 1017 30.03 846 24.98 14.5 58.1 14 -12.8 8.9
17:10 1017 30.03 846 24.98 14.6 58.4 14 -12.6 9.2
17:15 1017 30.03 846 24.98 14.7 58.5 13 -13 8.5
17:20 1017 30.03 846 24.98 14.3 57.7 14 -13 8.7
17:25 1017 30.03 846 24.98 14.7 58.5 14 -12.6 9.4
17:30 1017 30.03 846 24.98 15.1 59.1 13 -12.9 8.7
17:35 1017 30.03 846 24.98 14.9 58.7 13 -13.2 8.2
17:40 1017 30.03 846 24.98 14.7 58.4 13 -13.2 8.3
17:45 1017 30.03 846 24.98 14.4 58 13 -13.5 7.6
17:50 1017 30.03 846 24.98 14.8 58.6 13 -13.1 8.4
17:55 1017 30.03 846 24.98 14.8 58.7 13 -13.1 8.4
18:00 1017 30.03 846 24.98 14.7 58.4 13 -13.4 7.9
18:05 1017 30.03 846 24.98 14.6 58.2 16 -10.9 12.4
18:10 1017 30.03 846 24.98 14.1 57.3 18 -9.5 14.8
18:15 1017 30.03 846 24.98 13.8 56.8 19 -9.5 14.9
18:20 1017 30.03 846 24.98 13.5 56.4 19 -9.6 14.7
18:25 1017 30.03 846 24.98 13.3 55.9 20 -9.4 15.2
18:30 1017 30.03 846 24.98 12.3 54.1 21 -9.4 15.1
18:35 1017 30.03 846 24.98 12.2 54 22 -9.1 15.6
18:40 1017 30.03 846 24.98 12.6 54.7 21 -9.2 15.4
18:45 1017 30.03 846 24.98 12.6 54.7 20 -9.5 14.8
18:50 1017 30.03 846 24.98 12.7 54.8 20 -9.6 14.6
18:55 1017 30.03 846 24.98 12.2 54 21 -9.7 14.6
19:00 1017 30.03 846 24.98 12.5 54.6 20 -9.9 14.2
19:05 1017 30.03 846 24.98 12.3 54.2 20 -9.8 14.3
19:10 1017 30.03 846 24.98 12.1 53.8 20 -10 14
19:15 1017 30.03 846 24.98 12.2 53.9 20 -9.9 14.2
19:20 1017 30.03 846 24.98 12.2 53.9 20 -10.4 13.3
19:25 1017 30.03 846 24.98 12 53.6 19 -10.6 12.8
19:30 1017 30.03 846 24.98 11.8 53.3 20 -10.4 13.2
19:35 1017 30.03 846 24.98 11.8 53.2 20 -10.3 13.5
19:40 1016 30 846 24.98 11.7 53.1 20 -10.6 12.9
19:45 1016 30 846 24.98 11.6 52.9 20 -10.5 13.1
19:50 1016 30 846 24.98 11.6 52.8 20 -10.4 13.2
19:55 1016 30 846 24.98 11.5 52.7 20 -10.7 12.7
20:00 1016 30 846 24.98 11.5 52.6 21 -10.2 13.6
20:05 1016 30 846 24.98 11.4 52.5 21 -10.2 13.6
20:10 1016 30 846 24.98 11.4 52.4 20 -10.6 13
20:15 1016 30 846 24.98 11.2 52.1 22 -9.9 14.2
20:20 1016 30 846 24.98 10.8 51.5 24 -9.2 15.4
20:25 1016 30 846 24.98 10.1 50.2 29 -7.2 19
20:30 1016 30 846 24.98 9.1 48.3 32 -6.7 19.9
20:35 1016 30 846 24.98 8.4 47.1 33 -6.8 19.7
20:40 1016 30 846 24.98 8.1 46.5 34 -6.9 19.7
20:45 1017 30.03 846 24.98 7.9 46.3 34 -6.8 19.7
20:50 1017 30.03 846 24.98 7.7 45.8 35 -7 19.4
20:55 1017 30.03 846 24.98 7.4 45.3 35 -7 19.4
21:00 1017 30.03 846 24.98 7.2 44.9 35 -7.1 19.2
21:05 1017 30.03 846 24.98 7.2 44.9 34 -7.5 18.4
21:10 1017 30.03 846 24.98 7.2 44.9 35 -7.2 19.1
21:15 1017 30.03 846 24.98 6.9 44.4 37 -6.9 19.5
21:20 1017 30.03 846 24.98 6.5 43.8 38 -6.9 19.6
21:25 1017 30.03 846 24.98 6.4 43.5 37 -7.1 19.2
21:30 1017 30.03 846 24.98 6.4 43.5 37 -7.2 19.1
21:35 1017 30.03 846 24.98 6.3 43.4 37 -7.2 19.1
21:40 1017 30.03 846 24.98 6.3 43.3 37 -7.4 18.7
21:45 1017 30.03 846 24.98 6.2 43.1 38 -7 19.4
21:50 1017 30.03 846 24.98 5.9 42.7 39 -7.1 19.2
21:55 1017 30.03 846 24.98 5.7 42.3 40 -7 19.4
22:00 1017 30.03 846 24.98 5.6 42.1 39 -7.3 18.8
22:05 1017 30.03 846 24.98 5.7 42.3 37 -7.7 18.2
22:10 1017 30.03 846 24.98 5.9 42.6 37 -7.8 17.9
22:15 1017 30.03 846 24.98 5.9 42.7 38 -7.4 18.6
22:20 1017 30.03 846 24.98 6 42.8 36 -8.2 17.3
22:25 1017 30.03 846 24.98 6.1 43 35 -8.3 17.1
22:30 1017 30.03 846 24.98 6.2 43.2 34 -8.6 16.6
22:35 1017 30.03 846 24.98 6.3 43.3 34 -8.3 17.1
22:40 1017 30.03 846 24.98 6.3 43.3 34 -8.3 17
22:45 1017 30.03 846 24.98 6.3 43.4 34 -8.5 16.6
22:50 1017 30.03 846 24.98 6.5 43.7 33 -8.6 16.6
22:55 1017 30.03 846 24.98 6.7 44 33 -8.6 16.6
23:00 1017 30.03 846 24.98 6.4 43.6 33 -8.7 16.3
23:05 1017 30.03 847 25.01 6.4 43.4 34 -8.3 17
23:10 1017 30.03 846 24.98 6.1 42.9 34 -8.5 16.7
23:15 1017 30.03 846 24.98 5.6 42.1 36 -8.2 17.2
23:20 1017 30.03 846 24.98 5.4 41.8 37 -8.2 17.3
23:25 1017 30.03 846 24.98 5.2 41.4 38 -7.9 17.8
23:30 1017 30.03 846 24.98 5.3 41.5 38 -7.9 17.7
23:35 1017 30.03 846 24.98 5.3 41.5 34 -9.3 15.3
23:40 1017 30.03 846 24.98 5.9 42.7 33 -9 15.8
23:45 1017 30.03 846 24.98 6.1 42.9 33 -8.9 15.9
23:50 1017 30.03 846 24.98 6.2 43.2 31 -9.5 14.9
23:55 1017 30.03 846 24.98 6.6 43.9 33 -8.6 16.5
24:00 1017 30.03 846 24.98 5.9 42.6 36 -8.2 17.2